Douglas Observed Data For Previous 48 Hours

Caption
Day and Hour Reservoir Elevation (behind dam)* Tailwater Elevation (below dam)* Average Hourly Discharge*
4/17/2018 2 AM EDT 983.20 868.23 0
4/17/2018 3 AM EDT 983.27 868.20 52
4/17/2018 4 AM EDT 983.36 869.11 2,511
4/17/2018 5 AM EDT 983.44 868.52 0
4/17/2018 6 AM EDT 983.53 868.22 0
4/17/2018 7 AM EDT 983.59 868.20 52
4/17/2018 8 AM EDT 983.67 869.10 2,504
4/17/2018 9 AM EDT 983.73 868.51 0
4/17/2018 10 AM EDT 983.79 868.22 0
4/17/2018 11 AM EDT 983.85 868.20 53
4/17/2018 12 PM EDT 983.92 869.11 2,498
4/17/2018 1 PM EDT 984.01 868.53 0
4/17/2018 2 PM EDT 984.07 868.26 0
4/17/2018 3 PM EDT 984.09 868.24 52
4/17/2018 4 PM EDT 984.20 869.14 2,486
4/17/2018 5 PM EDT 984.25 868.54 0
4/17/2018 6 PM EDT 984.33 868.25 0
4/17/2018 7 PM EDT 984.37 868.21 52
4/17/2018 8 PM EDT 984.46 869.11 2,492
4/17/2018 9 PM EDT 984.50 868.51 0
4/17/2018 10 PM EDT 984.54 868.22 0
4/17/2018 11 PM EDT 984.58 868.19 51
4/18/2018 12 AM EDT 984.65 869.07 2,453
4/18/2018 1 AM EDT 984.69 868.49 0
4/18/2018 2 AM EDT 984.72 868.21 0
4/18/2018 3 AM EDT 984.76 868.18 53
4/18/2018 4 AM EDT 984.83 869.07 2,460
4/18/2018 5 AM EDT 984.89 868.49 0
4/18/2018 6 AM EDT 984.92 868.20 0
4/18/2018 7 AM EDT 984.96 868.18 51
4/18/2018 8 AM EDT 985.03 869.08 2,475
4/18/2018 9 AM EDT 985.05 868.49 0
4/18/2018 10 AM EDT 985.07 868.23 0
4/18/2018 11 AM EDT 985.10 868.22 51
4/18/2018 12 PM EDT 985.16 869.13 2,485
4/18/2018 1 PM EDT 985.19 868.52 0
4/18/2018 2 PM EDT 985.23 868.25 0
4/18/2018 3 PM EDT 985.27 868.23 50
4/18/2018 4 PM EDT 985.34 869.12 2,505
4/18/2018 5 PM EDT 985.39 868.53 0
4/18/2018 6 PM EDT 985.40 868.26 0
4/18/2018 7 PM EDT 985.40 868.24 51
4/18/2018 8 PM EDT 985.49 869.13 2,478
4/18/2018 9 PM EDT 985.55 868.54 0
4/18/2018 10 PM EDT 985.57 868.26 0
4/18/2018 11 PM EDT 985.57 868.21 52
4/19/2018 12 AM EDT 985.65 869.10 2,475
4/19/2018 1 AM EDT 985.71 868.50 0
4/19/2018 2 AM EDT 985.72 868.23 0
4/19/2018 3 AM EDT 985.71 868.22 51
4/19/2018 4 AM EDT 985.81 869.11 2,504
4/19/2018 5 AM EDT 985.89 868.51 0
4/19/2018 6 AM EDT 985.89 868.22 0
4/19/2018 7 AM EDT 985.87 868.19 52
4/19/2018 8 AM EDT 985.97 869.10 2,518
4/19/2018 9 AM EDT 986.00 868.52 0
4/19/2018 10 AM EDT 985.98 868.21 0
4/19/2018 11 AM EDT 986.02 868.19 51
4/19/2018 12 PM EDT 986.11 869.10 2,508
4/19/2018 1 PM EDT 986.11 868.51 0
4/19/2018 2 PM EDT 986.12 868.20 0
4/19/2018 3 PM EDT 986.19 868.16 51
4/19/2018 4 PM EDT 986.25 869.08 2,479
4/19/2018 5 PM EDT 986.26 868.50 0
4/19/2018 6 PM EDT 986.30 868.20 0
4/19/2018 7 PM EDT 986.33 868.18 51
4/19/2018 8 PM EDT 986.38 869.08 2,493
4/19/2018 9 PM EDT 986.38 868.49 0

Elevations are in feet above sea level. Discharges are in cubic feet per second and are reported at the end of the hour.